OSY weather

Namsos Høknesøra Airport
Namsos, Nord-Trøndelag, Norway

Public forecast

Using degrees Celsius for public forecast. Weather courtesy of forecast.io.

METAR (pilot weather report)

Retrieved 2019/07/21 19:50 UTC (56 minutes ago):

ENNM 211950Z VRB02KT 9999 -RA FEW030 BKN063 17/16 Q1010

TAF (pilot weather forecast)

Closest forecast is Trondheim Airport Værnes, 63.3 nm (117.2 km) SSW. Retrieved 2019/07/21 18:57 UTC (2 hours ago):

TAF ENVA 211700Z 2118/2218 VRB07KT 9999 -SHRA FEW030 BKN060 TEMPO 2118/2123 26010KT TEMPO 2118/2203 3000 SHRA BR BKN005 SCT020CB